Observation data for Tatum on 02/14/2020      Previous  Date  Next       Current Mesonet Observations  Soil Data  Daily Summary Page  Observations in Plain Language
KTAT 140600Z 12012KT M01/M02 A3022 RMK A01 T10091017  RH  096%=      5-min Rain = 0
KTAT 140605Z 13012KT M01/M02 A3022 RMK A01 T10101017  RH  096%=      5-min Rain = 0
KTAT 140610Z 13013KT M01/M02 A3022 RMK A01 T10091016  RH  096%=      5-min Rain = 0
KTAT 140615Z 13012KT M01/M02 A3022 RMK A01 T10091016  RH  096%=      5-min Rain = 0
KTAT 140620Z 14012KT M01/M02 A3022 RMK A01 T10091016  RH  096%=      5-min Rain = 0
KTAT 140625Z 14013G19KT M01/M02 A3022 RMK A01 T10101017  RH  096%=      5-min Rain = 0
KTAT 140630Z 14013KT M01/M02 A3022 RMK A01 T10111018  RH  096%=      5-min Rain = 0
KTAT 140635Z 14014KT M01/M02 A3022 RMK A01 T10111018  RH  096%=      5-min Rain = 0
KTAT 140640Z 14013KT M01/M02 A3023 RMK A01 T10101017  RH  096%=      5-min Rain = 0
KTAT 140645Z 13014KT M01/M02 A3023 RMK A01 T10121018  RH  096%=      5-min Rain = 0
KTAT 140650Z 14013KT M01/M02 A3023 RMK A01 T10121018  RH  096%=      5-min Rain = 0
KTAT 140655Z 13013KT M01/M02 A3023 RMK A01 T10131019  RH  096%=      5-min Rain = 0
KTAT 140700Z 14013KT M01/M02 A3023 RMK A01 T10121018  RH  097%=      5-min Rain = 0
KTAT 140705Z 14013KT M01/M02 A3023 RMK A01 T10131018  RH  097%=      5-min Rain = 0
KTAT 140710Z 14014KT M01/M02 A3023 RMK A01 T10131019  RH  097%=      5-min Rain = 0
KTAT 140715Z 14012G17KT M01/M02 A3023 RMK A01 T10131019  RH  097%=      5-min Rain = 0
KTAT 140720Z 14013KT M01/M02 A3023 RMK A01 T10131019  RH  097%=      5-min Rain = 0
KTAT 140725Z 14014KT M01/M02 A3023 RMK A01 T10141020  RH  097%=      5-min Rain = 0
KTAT 140730Z 14014KT M02/M02 A3023 RMK A01 T10151020  RH  097%=      5-min Rain = 0
KTAT 140735Z 14013KT M02/M02 A3023 RMK A01 T10151020  RH  097%=      5-min Rain = 0
KTAT 140740Z 14011KT M01/M02 A3024 RMK A01 T10141020  RH  097%=      5-min Rain = 0
KTAT 140745Z 13013KT M01/M02 A3024 RMK A01 T10141020  RH  097%=      5-min Rain = 0
KTAT 140750Z 13013KT M02/M02 A3024 RMK A01 T10151021  RH  097%=      5-min Rain = 0
KTAT 140755Z 13013KT M02/M02 A3024 RMK A01 T10151021  RH  097%=      5-min Rain = 0
KTAT 140800Z 13013KT M02/M02 A3024 RMK A01 T10151020  RH  097%=      5-min Rain = 0
KTAT 140805Z 13012KT M02/M02 A3024 RMK A01 T10151021  RH  097%=      5-min Rain = 0
KTAT 140810Z 13012KT M02/M02 A3024 RMK A01 T10151020  RH  097%=      5-min Rain = 0
KTAT 140815Z 13011KT M01/M02 A3024 RMK A01 T10141020  RH  097%=      5-min Rain = 0
KTAT 140820Z 14011KT M01/M02 A3024 RMK A01 T10141020  RH  097%=      5-min Rain = 0
KTAT 140825Z 12010KT M01/M02 A3024 RMK A01 T10141020  RH  097%=      5-min Rain = 0
KTAT 140830Z 12010KT M01/M02 A3023 RMK A01 T10141020  RH  097%=      5-min Rain = 0
KTAT 140835Z 13012KT M02/M02 A3023 RMK A01 T10151020  RH  097%=      5-min Rain = 0
KTAT 140840Z 13013KT M02/M02 A3023 RMK A01 T10161021  RH  097%=      5-min Rain = 0
KTAT 140845Z 13012KT M02/M02 A3023 RMK A01 T10161021  RH  097%=      5-min Rain = 0
KTAT 140850Z 14011G16KT M02/M02 A3023 RMK A01 T10161022  RH  097%=      5-min Rain = 0
KTAT 140855Z 14011KT M02/M02 A3023 RMK A01 T10161021  RH  097%=      5-min Rain = 0
KTAT 140900Z 13013KT M02/M02 A3023 RMK A01 T10161022  RH  097%=      5-min Rain = 0
KTAT 140905Z 14012KT M02/M02 A3023 RMK A01 T10171022  RH  097%=      5-min Rain = 0
KTAT 140910Z 13010KT M02/M02 A3023 RMK A01 T10161022  RH  097%=      5-min Rain = 0
KTAT 140915Z 14012KT M02/M02 A3023 RMK A01 T10171022  RH  097%=      5-min Rain = 0
KTAT 140920Z 13009KT M02/M02 A3023 RMK A01 T10171022  RH  097%=      5-min Rain = 0
KTAT 140925Z 13011KT M02/M02 A3023 RMK A01 T10171023  RH  097%=      5-min Rain = 0
KTAT 140930Z 13010KT M02/M02 A3023 RMK A01 T10181024  RH  097%=      5-min Rain = 0
KTAT 140935Z 13011KT M02/M02 A3023 RMK A01 T10191024  RH  097%=      5-min Rain = 0
KTAT 140940Z 14013KT M02/M03 A3023 RMK A01 T10201025  RH  097%=      5-min Rain = 0
KTAT 140945Z 14011KT M02/M03 A3023 RMK A01 T10201025  RH  097%=      5-min Rain = 0
KTAT 140950Z 13010KT M02/M03 A3023 RMK A01 T10201026  RH  097%=      5-min Rain = 0
KTAT 140955Z 13011KT M02/M03 A3023 RMK A01 T10201026  RH  097%=      5-min Rain = 0
KTAT 141000Z 14012KT M02/M03 A3023 RMK A01 T10211027  RH  097%=      5-min Rain = 0
KTAT 141005Z 14012KT M02/M03 A3023 RMK A01 T10211027  RH  097%=      5-min Rain = 0
KTAT 141010Z 13012KT M02/M03 A3023 RMK A01 T10221027  RH  097%=      5-min Rain = 0
KTAT 141015Z 14011KT M02/M03 A3023 RMK A01 T10211027  RH  097%=      5-min Rain = 0
KTAT 141020Z 14012KT M02/M03 A3023 RMK A01 T10211027  RH  097%=      5-min Rain = 0
KTAT 141025Z 14012KT M02/M03 A3023 RMK A01 T10211027  RH  097%=      5-min Rain = 0
KTAT 141030Z 15011KT M02/M03 A3023 RMK A01 T10211027  RH  097%=      5-min Rain = 0
KTAT 141035Z 15011KT M02/M03 A3023 RMK A01 T10201026  RH  097%=      5-min Rain = 0
KTAT 141040Z 14012KT M02/M03 A3023 RMK A01 T10211027  RH  097%=      5-min Rain = 0
KTAT 141045Z 15011KT M02/M03 A3023 RMK A01 T10221027  RH  097%=      5-min Rain = 0
KTAT 141050Z 14009KT M02/M03 A3023 RMK A01 T10211027  RH  097%=      5-min Rain = 0
KTAT 141055Z 14010KT M02/M03 A3023 RMK A01 T10211026  RH  097%=      5-min Rain = 0
KTAT 141100Z 15011KT M02/M03 A3022 RMK A01 T10211026  RH  097%=      5-min Rain = 0
KTAT 141105Z 15009KT M02/M03 A3023 RMK A01 T10201026  RH  097%=      5-min Rain = 0
KTAT 141110Z 15010KT M02/M03 A3023 RMK A01 T10201026  RH  097%=      5-min Rain = 0
KTAT 141115Z 15010KT M02/M03 A3023 RMK A01 T10191025  RH  097%=      5-min Rain = 0
KTAT 141120Z 14008KT M02/M03 A3023 RMK A01 T10191025  RH  097%=      5-min Rain = 0
KTAT 141125Z 15010KT M02/M03 A3023 RMK A01 T10191025  RH  097%=      5-min Rain = 0
KTAT 141130Z 15009KT M02/M03 A3023 RMK A01 T10191025  RH  097%=      5-min Rain = 0
KTAT 141135Z 15010KT M02/M02 A3023 RMK A01 T10191024  RH  097%=      5-min Rain = 0
KTAT 141140Z 14010KT M02/M02 A3023 RMK A01 T10191024  RH  097%=      5-min Rain = 0
KTAT 141145Z 14009KT M02/M02 A3023 RMK A01 T10191024  RH  097%=      5-min Rain = 0
KTAT 141150Z 15009KT M02/M02 A3024 RMK A01 T10181024  RH  097%=      5-min Rain = 0
KTAT 141155Z 14009KT M02/M02 A3023 RMK A01 T10191024  RH  097%=      5-min Rain = 0
KTAT 141200Z 14009KT M02/M03 A3023 RMK A01 T10191025  RH  097%=      5-min Rain = 0
KTAT 141205Z 15009KT M02/M03 A3023 RMK A01 T10191025  RH  097%=      5-min Rain = 0
KTAT 141210Z 15010KT M02/M02 A3024 RMK A01 T10191024  RH  097%=      5-min Rain = 0
KTAT 141215Z 15009KT M02/M02 A3024 RMK A01 T10181024  RH  097%=      5-min Rain = 0
KTAT 141220Z 15009KT M02/M02 A3024 RMK A01 T10191024  RH  097%=      5-min Rain = 0
KTAT 141225Z 15009KT M02/M02 A3024 RMK A01 T10181024  RH  097%=      5-min Rain = 0
KTAT 141230Z 15010KT M02/M02 A3024 RMK A01 T10181024  RH  097%=      5-min Rain = 0
KTAT 141235Z 15009KT M02/M02 A3024 RMK A01 T10191024  RH  097%=      5-min Rain = 0
KTAT 141240Z 15010KT M02/M02 A3024 RMK A01 T10181023  RH  097%=      5-min Rain = 0
KTAT 141245Z 16010KT M02/M02 A3025 RMK A01 T10181023  RH  097%=      5-min Rain = 0
KTAT 141250Z 16010KT M02/M02 A3025 RMK A01 T10171023  RH  097%=      5-min Rain = 0
KTAT 141255Z 15009KT M02/M02 A3025 RMK A01 T10171022  RH  097%=      5-min Rain = 0
KTAT 141300Z 16011KT M02/M02 A3025 RMK A01 T10171023  RH  097%=      5-min Rain = 0
KTAT 141305Z 16010KT M02/M02 A3024 RMK A01 T10171022  RH  097%=      5-min Rain = 0
KTAT 141310Z 16009KT M02/M02 A3024 RMK A01 T10161022  RH  097%=      5-min Rain = 0
KTAT 141315Z 15009KT M02/M02 A3024 RMK A01 T10161021  RH  097%=      5-min Rain = 0
KTAT 141320Z 15009KT M02/M02 A3024 RMK A01 T10161021  RH  097%=      5-min Rain = 0
KTAT 141325Z 15008KT M02/M02 A3024 RMK A01 T10161021  RH  097%=      5-min Rain = 0
KTAT 141330Z 16009KT M02/M02 A3024 RMK A01 T10151021  RH  097%=      5-min Rain = 0
KTAT 141335Z 16009KT M02/M02 A3024 RMK A01 T10151020  RH  097%=      5-min Rain = 0
KTAT 141340Z 16009KT M01/M02 A3025 RMK A01 T10131019  RH  097%=      5-min Rain = 0
KTAT 141345Z 16009KT M01/M02 A3025 RMK A01 T10131018  RH  097%=      5-min Rain = 0
KTAT 141350Z 16010KT M01/M02 A3025 RMK A01 T10131018  RH  097%=      5-min Rain = 0
KTAT 141355Z 16010KT M01/M02 A3025 RMK A01 T10121018  RH  097%=      5-min Rain = 0
KTAT 141400Z 16009KT M01/M02 A3025 RMK A01 T10121017  RH  097%=      5-min Rain = 0
KTAT 141405Z 16009KT M01/M02 A3025 RMK A01 T10121017  RH  097%=      5-min Rain = 0
KTAT 141410Z 16009KT M01/M02 A3025 RMK A01 T10111017  RH  097%=      5-min Rain = 0
KTAT 141415Z 16009KT M01/M02 A3025 RMK A01 T10111016  RH  097%=      5-min Rain = 0
KTAT 141420Z 16009G14KT M01/M02 A3025 RMK A01 T10101016  RH  097%=      5-min Rain = 0
KTAT 141425Z 16008G13KT M01/M02 A3025 RMK A01 T10101015  RH  097%=      5-min Rain = 0
KTAT 141430Z 16009KT M01/M02 A3025 RMK A01 T10091015  RH  097%=      5-min Rain = 0
KTAT 141435Z 16009KT M01/M01 A3025 RMK A01 T10091014  RH  097%=      5-min Rain = 0
KTAT 141440Z 16011KT M01/M01 A3024 RMK A01 T10081014  RH  097%=      5-min Rain = 0
KTAT 141445Z 16011KT M01/M01 A3025 RMK A01 T10081014  RH  097%=      5-min Rain = 0
KTAT 141450Z 16011KT M01/M01 A3025 RMK A01 T10081013  RH  097%=      5-min Rain = 0
KTAT 141455Z 17011KT M01/M01 A3025 RMK A01 T10071013  RH  097%=      5-min Rain = 0
KTAT 141500Z 16010KT M01/M01 A3025 RMK A01 T10071012  RH  097%=      5-min Rain = 0
KTAT 141505Z 16011KT M01/M01 A3025 RMK A01 T10061012  RH  097%=      5-min Rain = 0
KTAT 141510Z 17010KT M01/M01 A3025 RMK A01 T10061011  RH  097%=      5-min Rain = 0
KTAT 141515Z 17011KT M01/M01 A3025 RMK A01 T10051011  RH  097%=      5-min Rain = 0
KTAT 141520Z 17009KT M01/M01 A3025 RMK A01 T10051010  RH  097%=      5-min Rain = 0
KTAT 141525Z 16011KT M00/M01 A3025 RMK A01 T10041010  RH  097%=      5-min Rain = 0
KTAT 141530Z 17011KT M00/M01 A3025 RMK A01 T10041010  RH  097%=      5-min Rain = 0
KTAT 141535Z 16011KT M00/M01 A3026 RMK A01 T10041010  RH  097%=      5-min Rain = 0
KTAT 141540Z 17010KT M00/M01 A3025 RMK A01 T10041009  RH  097%=      5-min Rain = 0
KTAT 141545Z 18011KT M00/M01 A3026 RMK A01 T10031009  RH  097%=      5-min Rain = 0
KTAT 141550Z 17010KT M00/M01 A3025 RMK A01 T10031008  RH  097%=      5-min Rain = 0.01
KTAT 141555Z 17011KT M00/M01 A3026 RMK A01 T10021008  RH  097%=      5-min Rain = 0
KTAT 141600Z 17010KT M00/M01 A3026 RMK A01 T10021007  RH  097%=      5-min Rain = 0
KTAT 141605Z 16011KT M00/M01 A3026 RMK A01 T10021007  RH  097%=      5-min Rain = 0
KTAT 141610Z 17010KT M00/M01 A3026 RMK A01 T10011006  RH  097%=      5-min Rain = 0
KTAT 141615Z 17010KT 00/01 A3026 RMK A01 T00-000-6  RH  097%=      5-min Rain = 0
KTAT 141620Z 17010KT 00/01 A3026 RMK A01 T00-000-6  RH  097%=      5-min Rain = 0
KTAT 141625Z 18011KT 00/01 A3026 RMK A01 T000000-5  RH  097%=      5-min Rain = 0
KTAT 141630Z 18011KT 00/M01 A3026 RMK A01 T00011005  RH  097%=      5-min Rain = 0
KTAT 141635Z 18011KT 00/M00 A3026 RMK A01 T00021004  RH  097%=      5-min Rain = 0
KTAT 141640Z 17011KT 00/M00 A3026 RMK A01 T00011004  RH  097%=      5-min Rain = 0
KTAT 141645Z 18010KT 00/M00 A3026 RMK A01 T00021003  RH  097%=      5-min Rain = 0
KTAT 141650Z 16010KT 00/M00 A3025 RMK A01 T00031003  RH  097%=      5-min Rain = 0
KTAT 141655Z 17011KT 00/M00 A3025 RMK A01 T00041001  RH  097%=      5-min Rain = 0
KTAT 141700Z 17010G15KT 01/M00 A3026 RMK A01 T00051001  RH  097%=      5-min Rain = 0
KTAT 141705Z 17011KT 01/M00 A3026 RMK A01 T00051001  RH  097%=      5-min Rain = 0
KTAT 141710Z 17011KT 01/00 A3026 RMK A01 T000500-0  RH  097%=      5-min Rain = 0
KTAT 141715Z 19010KT 01/00 A3026 RMK A01 T00070001  RH  097%=      5-min Rain = 0
KTAT 141720Z 19011G16KT 01/00 A3026 RMK A01 T00070001  RH  097%=      5-min Rain = 0
KTAT 141725Z 18011KT 01/00 A3026 RMK A01 T00090003  RH  097%=      5-min Rain = 0
KTAT 141730Z 19010KT 01/00 A3026 RMK A01 T00100003  RH  097%=      5-min Rain = 0
KTAT 141735Z 17009KT 01/01 A3025 RMK A01 T00110005  RH  097%=      5-min Rain = 0
KTAT 141740Z 18010KT 01/01 A3025 RMK A01 T00110005  RH  097%=      5-min Rain = 0
KTAT 141745Z 19010KT 01/01 A3025 RMK A01 T00110005  RH  097%=      5-min Rain = 0
KTAT 141750Z 19011KT 01/01 A3025 RMK A01 T00110005  RH  097%=      5-min Rain = 0
KTAT 141755Z 20010KT 01/01 A3025 RMK A01 T00120006  RH  097%=      5-min Rain = 0
KTAT 141800Z 19010KT 01/01 A3025 RMK A01 T00120006  RH  097%=      5-min Rain = 0
KTAT 141805Z 19010KT 01/01 A3024 RMK A01 T00130006  RH  097%=      5-min Rain = 0
KTAT 141810Z 17010KT 02/01 A3024 RMK A01 T00160009  RH  097%=      5-min Rain = 0
KTAT 141815Z 18010KT 02/01 A3024 RMK A01 T00170010  RH  097%=      5-min Rain = 0
KTAT 141820Z 17011KT 02/01 A3023 RMK A01 T00160009  RH  097%=      5-min Rain = 0
KTAT 141825Z 17010KT 02/01 A3023 RMK A01 T00160010  RH  097%=      5-min Rain = 0
KTAT 141830Z 17010KT 02/01 A3023 RMK A01 T00180011  RH  097%=      5-min Rain = 0
KTAT 141835Z 17009G14KT 02/01 A3023 RMK A01 T00190012  RH  097%=      5-min Rain = 0
KTAT 141840Z 17009KT 02/01 A3023 RMK A01 T00190012  RH  097%=      5-min Rain = 0
KTAT 141845Z 18010KT 02/01 A3023 RMK A01 T00200013  RH  097%=      5-min Rain = 0
KTAT 141850Z 18007KT 02/02 A3022 RMK A01 T00220015  RH  096%=      5-min Rain = 0
KTAT 141855Z 17009KT 02/01 A3022 RMK A01 T00210014  RH  096%=      5-min Rain = 0
KTAT 141900Z 17011KT 02/01 A3022 RMK A01 T00210014  RH  096%=      5-min Rain = 0
KTAT 141905Z 18009KT 02/01 A3022 RMK A01 T00210014  RH  096%=      5-min Rain = 0
KTAT 141910Z 17009KT 02/02 A3021 RMK A01 T00230016  RH  096%=      5-min Rain = 0
KTAT 141915Z 17010KT 03/02 A3021 RMK A01 T00260019  RH  096%=      5-min Rain = 0
KTAT 141920Z 17009KT 03/02 A3021 RMK A01 T00260018  RH  096%=      5-min Rain = 0
KTAT 141925Z 17009G14KT 03/02 A302 RMK A01 T00270019  RH  096%=      5-min Rain = 0
KTAT 141930Z 18009KT 03/02 A302 RMK A01 T00280020  RH  096%=      5-min Rain = 0
KTAT 141935Z 17010KT 03/02 A3019 RMK A01 T00280020  RH  096%=      5-min Rain = 0
KTAT 141940Z 17010KT 03/02 A3019 RMK A01 T00330024  RH  096%=      5-min Rain = 0
KTAT 141945Z 16010KT 03/02 A3019 RMK A01 T00320023  RH  096%=      5-min Rain = 0
KTAT 141950Z 16010KT 03/02 A3018 RMK A01 T00310022  RH  095%=      5-min Rain = 0
KTAT 141955Z 17010KT 03/03 A3018 RMK A01 T00340025  RH  095%=      5-min Rain = 0
KTAT 142000Z 16010KT 04/03 A3018 RMK A01 T00360026  RH  095%=      5-min Rain = 0
KTAT 142005Z 16010KT 04/03 A3017 RMK A01 T00370027  RH  095%=      5-min Rain = 0
KTAT 142010Z 16010G15KT 04/03 A3017 RMK A01 T00410031  RH  095%=      5-min Rain = 0
KTAT 142015Z 16010KT 05/03 A3016 RMK A01 T00450034  RH  094%=      5-min Rain = 0
KTAT 142020Z 17011KT 05/04 A3016 RMK A01 T00520039  RH  093%=      5-min Rain = 0
KTAT 142025Z 16010KT 05/03 A3016 RMK A01 T00520031  RH  088%=      5-min Rain = 0
KTAT 142030Z 15012KT 06/03 A3015 RMK A01 T00560028  RH  084%=      5-min Rain = 0
KTAT 142035Z 16011KT 07/03 A3015 RMK A01 T00650026  RH  077%=      5-min Rain = 0
KTAT 142040Z 17012KT 07/02 A3015 RMK A01 T00690022  RH  073%=      5-min Rain = 0
KTAT 142045Z 16011KT 07/02 A3015 RMK A01 T00740023  RH  071%=      5-min Rain = 0
KTAT 142050Z 16012KT 08/02 A3014 RMK A01 T00780021  RH  068%=      5-min Rain = 0
KTAT 142055Z 16013G18KT 08/02 A3014 RMK A01 T00780019  RH  067%=      5-min Rain = 0
KTAT 142100Z 16011KT 08/02 A3014 RMK A01 T00800020  RH  067%=      5-min Rain = 0
KTAT 142105Z 17012KT 09/02 A3014 RMK A01 T00850021  RH  065%=      5-min Rain = 0
KTAT 142110Z 15010G15KT 08/02 A3014 RMK A01 T00840019  RH  065%=      5-min Rain = 0
KTAT 142115Z 16011KT 09/02 A3013 RMK A01 T00880022  RH  064%=      5-min Rain = 0
KTAT 142120Z 17011G16KT 09/02 A3013 RMK A01 T00930023  RH  063%=      5-min Rain = 0
KTAT 142125Z 16011KT 09/02 A3013 RMK A01 T00920021  RH  062%=      5-min Rain = 0
KTAT 142130Z 16011KT 09/02 A3013 RMK A01 T00930021  RH  062%=      5-min Rain = 0
KTAT 142135Z 17012KT 10/02 A3013 RMK A01 T00970021  RH  060%=      5-min Rain = 0
KTAT 142140Z 16013KT 10/02 A3013 RMK A01 T00970020  RH  059%=      5-min Rain = 0
KTAT 142145Z 16013KT 10/02 A3012 RMK A01 T00960019  RH  060%=      5-min Rain = 0
KTAT 142150Z 16012KT 10/02 A3012 RMK A01 T01020021  RH  058%=      5-min Rain = 0
KTAT 142155Z 16013G18KT 11/02 A3012 RMK A01 T01060021  RH  056%=      5-min Rain = 0
KTAT 142200Z 16014KT 10/02 A3012 RMK A01 T01030018  RH  057%=      5-min Rain = 0
KTAT 142205Z 16014KT 11/02 A3011 RMK A01 T01050019  RH  056%=      5-min Rain = 0
KTAT 142210Z 17014KT 11/02 A3011 RMK A01 T01060018  RH  055%=      5-min Rain = 0
KTAT 142215Z 17014G19KT 11/02 A3011 RMK A01 T01080017  RH  054%=      5-min Rain = 0
KTAT 142220Z 16015KT 11/02 A3011 RMK A01 T01070017  RH  055%=      5-min Rain = 0
KTAT 142225Z 16014KT 11/02 A3011 RMK A01 T01060016  RH  055%=      5-min Rain = 0
KTAT 142230Z 16013KT 11/02 A3011 RMK A01 T01080017  RH  054%=      5-min Rain = 0
KTAT 142235Z 17015KT 11/01 A301 RMK A01 T01080012  RH  052%=      5-min Rain = 0
KTAT 142240Z 16015KT 11/01 A301 RMK A01 T01060014  RH  054%=      5-min Rain = 0
KTAT 142245Z 17016G21KT 11/01 A301 RMK A01 T01070011  RH  052%=      5-min Rain = 0
KTAT 142250Z 16016KT 11/01 A301 RMK A01 T01070011  RH  052%=      5-min Rain = 0
KTAT 142255Z 17015KT 11/01 A301 RMK A01 T01110013  RH  052%=      5-min Rain = 0
KTAT 142300Z 17014KT 11/01 A301 RMK A01 T01130013  RH  051%=      5-min Rain = 0
KTAT 142305Z 16016KT 11/01 A301 RMK A01 T01100010  RH  051%=      5-min Rain = 0
KTAT 142310Z 16015KT 11/01 A301 RMK A01 T01080009  RH  051%=      5-min Rain = 0
KTAT 142315Z 16015KT 11/01 A301 RMK A01 T01070009  RH  052%=      5-min Rain = 0
KTAT 142320Z 16016KT 11/01 A301 RMK A01 T01070010  RH  052%=      5-min Rain = 0
KTAT 142325Z 16016KT 11/01 A301 RMK A01 T01060010  RH  052%=      5-min Rain = 0
KTAT 142330Z 16016G21KT 11/01 A301 RMK A01 T01070009  RH  051%=      5-min Rain = 0
KTAT 142335Z 17016KT 10/01 A301 RMK A01 T01040008  RH  052%=      5-min Rain = 0
KTAT 142340Z 17016KT 10/01 A3009 RMK A01 T01030007  RH  052%=      5-min Rain = 0
KTAT 142345Z 16016KT 10/01 A3009 RMK A01 T00970007  RH  054%=      5-min Rain = 0
KTAT 142350Z 16017KT 10/01 A3009 RMK A01 T00950007  RH  055%=      5-min Rain = 0
KTAT 142355Z 16016KT 09/01 A3009 RMK A01 T00940007  RH  055%=      5-min Rain = 0
KTAT 150000Z 16014KT 09/01 A3009 RMK A01 T00930007  RH  056%=      5-min Rain = 0
KTAT 150005Z 16014G19KT 09/01 A3009 RMK A01 T00910006  RH  056%=      5-min Rain = 0
KTAT 150010Z 16014KT 09/01 A301 RMK A01 T00880006  RH  057%=      5-min Rain = 0
KTAT 150015Z 16013KT 09/01 A301 RMK A01 T00850006  RH  058%=      5-min Rain = 0
KTAT 150020Z 16011G16KT 08/01 A301 RMK A01 T00820006  RH  060%=      5-min Rain = 0
KTAT 150025Z 15010KT 08/01 A301 RMK A01 T00800006  RH  061%=      5-min Rain = 0
KTAT 150030Z 15009KT 08/01 A3011 RMK A01 T00770006  RH  062%=      5-min Rain = 0
KTAT 150035Z 14009KT 07/01 A3011 RMK A01 T00690009  RH  066%=      5-min Rain = 0
KTAT 150040Z 14010KT 06/01 A3011 RMK A01 T00640008  RH  068%=      5-min Rain = 0
KTAT 150045Z 14010KT 06/01 A3011 RMK A01 T00610009  RH  070%=      5-min Rain = 0
KTAT 150050Z 14009KT 06/01 A3011 RMK A01 T00580008  RH  071%=      5-min Rain = 0
KTAT 150055Z 14010KT 06/01 A3011 RMK A01 T00560008  RH  072%=      5-min Rain = 0
KTAT 150100Z 14010KT 05/01 A3011 RMK A01 T00540008  RH  073%=      5-min Rain = 0
KTAT 150105Z 14008KT 05/01 A3011 RMK A01 T00520007  RH  074%=      5-min Rain = 0
KTAT 150110Z 14008KT 05/01 A3011 RMK A01 T00490006  RH  075%=      5-min Rain = 0
KTAT 150115Z 13008KT 05/01 A3012 RMK A01 T00470006  RH  076%=      5-min Rain = 0
KTAT 150120Z 13008KT 05/01 A3012 RMK A01 T00450005  RH  076%=      5-min Rain = 0
KTAT 150125Z 13008KT 04/01 A3012 RMK A01 T00440005  RH  077%=      5-min Rain = 0
KTAT 150130Z 13008KT 04/00 A3012 RMK A01 T00410004  RH  078%=      5-min Rain = 0
KTAT 150135Z 13008KT 04/00 A3012 RMK A01 T00360002  RH  079%=      5-min Rain = 0
KTAT 150140Z 13008KT 03/00 A3012 RMK A01 T00340003  RH  081%=      5-min Rain = 0
KTAT 150145Z 14009KT 04/00 A3012 RMK A01 T00360004  RH  081%=      5-min Rain = 0
KTAT 150150Z 14010KT 04/00 A3012 RMK A01 T00360004  RH  081%=      5-min Rain = 0
KTAT 150155Z 14010KT 04/00 A3012 RMK A01 T00350004  RH  081%=      5-min Rain = 0
KTAT 150200Z 14010KT 03/00 A3012 RMK A01 T00320003  RH  082%=      5-min Rain = 0
KTAT 150205Z 14010KT 03/00 A3012 RMK A01 T00310003  RH  083%=      5-min Rain = 0
KTAT 150210Z 14010KT 03/00 A3012 RMK A01 T00290003  RH  084%=      5-min Rain = 0
KTAT 150215Z 14010KT 03/00 A3012 RMK A01 T00280002  RH  084%=      5-min Rain = 0
KTAT 150220Z 15010KT 03/00 A3013 RMK A01 T00270002  RH  085%=      5-min Rain = 0
KTAT 150225Z 15011KT 03/00 A3013 RMK A01 T00270003  RH  085%=      5-min Rain = 0
KTAT 150230Z 15011KT 03/00 A3013 RMK A01 T00270004  RH  086%=      5-min Rain = 0
KTAT 150235Z 15011KT 03/01 A3013 RMK A01 T00280005  RH  086%=      5-min Rain = 0
KTAT 150240Z 15011KT 03/00 A3013 RMK A01 T00270004  RH  086%=      5-min Rain = 0
KTAT 150245Z 15011KT 03/00 A3013 RMK A01 T00270004  RH  086%=      5-min Rain = 0
KTAT 150250Z 15012KT 03/01 A3013 RMK A01 T00270005  RH  086%=      5-min Rain = 0
KTAT 150255Z 16013KT 03/01 A3013 RMK A01 T00270005  RH  086%=      5-min Rain = 0
KTAT 150300Z 16013KT 03/01 A3013 RMK A01 T00270005  RH  086%=      5-min Rain = 0
KTAT 150305Z 16013KT 03/00 A3013 RMK A01 T00260004  RH  086%=      5-min Rain = 0
KTAT 150310Z 16013KT 03/00 A3013 RMK A01 T00260004  RH  087%=      5-min Rain = 0
KTAT 150315Z 16014KT 03/00 A3013 RMK A01 T00250004  RH  087%=      5-min Rain = 0
KTAT 150320Z 16013KT 02/00 A3013 RMK A01 T00240004  RH  088%=      5-min Rain = 0
KTAT 150325Z 16013KT 02/00 A3012 RMK A01 T00230003  RH  088%=      5-min Rain = 0
KTAT 150330Z 16012KT 02/00 A3012 RMK A01 T00220003  RH  088%=      5-min Rain = 0
KTAT 150335Z 16012KT 02/00 A3012 RMK A01 T00220003  RH  088%=      5-min Rain = 0
KTAT 150340Z 16013KT 02/00 A3012 RMK A01 T00220004  RH  089%=      5-min Rain = 0
KTAT 150345Z 17013KT 02/01 A3012 RMK A01 T00230005  RH  089%=      5-min Rain = 0
KTAT 150350Z 17014KT 03/01 A3012 RMK A01 T00250006  RH  088%=      5-min Rain = 0
KTAT 150355Z 17013KT 03/01 A3012 RMK A01 T00270006  RH  087%=      5-min Rain = 0
KTAT 150400Z 17014KT 03/01 A3012 RMK A01 T00290007  RH  087%=      5-min Rain = 0
KTAT 150405Z 17015KT 03/01 A3012 RMK A01 T00290007  RH  086%=      5-min Rain = 0
KTAT 150410Z 17015KT 03/01 A3012 RMK A01 T00310007  RH  086%=      5-min Rain = 0
KTAT 150415Z 17016KT 03/01 A3011 RMK A01 T00320007  RH  085%=      5-min Rain = 0
KTAT 150420Z 17016KT 03/01 A3011 RMK A01 T00330007  RH  084%=      5-min Rain = 0
KTAT 150425Z 17016G21KT 03/01 A3011 RMK A01 T00330007  RH  084%=      5-min Rain = 0
KTAT 150430Z 17017KT 03/01 A3011 RMK A01 T00330007  RH  084%=      5-min Rain = 0
KTAT 150435Z 17015KT 03/01 A3011 RMK A01 T00330007  RH  084%=      5-min Rain = 0
KTAT 150440Z 17016KT 03/01 A3011 RMK A01 T00320006  RH  084%=      5-min Rain = 0
KTAT 150445Z 17014G19KT 03/01 A3011 RMK A01 T00320006  RH  084%=      5-min Rain = 0
KTAT 150450Z 17013KT 03/01 A3011 RMK A01 T00310005  RH  084%=      5-min Rain = 0
KTAT 150455Z 18012G17KT 03/01 A3011 RMK A01 T00300005  RH  085%=      5-min Rain = 0
KTAT 150500Z 18012KT 03/01 A3011 RMK A01 T00290005  RH  085%=      5-min Rain = 0
KTAT 150505Z 18012KT 03/01 A301 RMK A01 T00290005  RH  085%=      5-min Rain = 0
KTAT 150510Z 18013KT 03/01 A301 RMK A01 T00300006  RH  085%=      5-min Rain = 0
KTAT 150515Z 18014G20KT 03/01 A301 RMK A01 T00310007  RH  085%=      5-min Rain = 0
KTAT 150520Z 17015G20KT 03/01 A301 RMK A01 T00330007  RH  085%=      5-min Rain = 0
KTAT 150525Z 17016KT 03/01 A3009 RMK A01 T00330007  RH  084%=      5-min Rain = 0
KTAT 150530Z 17016KT 03/01 A301 RMK A01 T00340007  RH  084%=      5-min Rain = 0
KTAT 150535Z 18016KT 03/01 A301 RMK A01 T00330007  RH  084%=      5-min Rain = 0
KTAT 150540Z 18016KT 03/01 A301 RMK A01 T00330007  RH  084%=      5-min Rain = 0
KTAT 150545Z 18015KT 03/01 A301 RMK A01 T00330007  RH  084%=      5-min Rain = 0
KTAT 150550Z 18015KT 03/01 A301 RMK A01 T00310006  RH  085%=      5-min Rain = 0
KTAT 150555Z 18016KT 03/01 A301 RMK A01 T00310007  RH  085%=      5-min Rain = 0

Page generated in 0.0597 seconds.